Time;durP1;ratioP1;P1;durP2;ratioP2;P2;SDS_P1;SDS_P2;PMS_P1;PMS_P2;Temp;Humidity;BMP_temperature;BMP_pressure;BME280_temperature;BME280_humidity;BME280_pressure;Samples;Min_cycle;Max_cycle;Signal;HPM_P1;HPM_P2
2022/12/13 00:01:20;;;;;;;13.68;6.03;;;;;;;2.17;83.20;94281.78;5012958;28;20441;-75
2022/12/13 00:03:46;;;;;;;7.17;4.63;;;;;;;1.99;82.66;94274.28;5013488;28;20185;-75
2022/12/13 00:06:12;;;;;;;6.73;3.73;;;;;;;2.09;82.77;94292.22;5013627;28;20887;-75
2022/12/13 00:08:38;;;;;;;6.07;3.97;;;;;;;2.06;82.77;94292.59;5004364;28;20311;-75
2022/12/13 00:11:06;;;;;;;9.13;4.93;;;;;;;2.07;82.74;94294.22;5004419;28;20320;-75
2022/12/13 00:13:32;;;;;;;12.60;6.50;;;;;;;2.10;82.23;94297.25;5013276;28;20261;-75
2022/12/13 00:16:00;;;;;;;8.68;5.22;;;;;;;2.06;82.35;94302.97;5012446;28;20406;-75
2022/12/13 00:18:26;;;;;;;6.95;4.03;;;;;;;2.08;81.48;94308.78;5011645;28;20418;-75
2022/12/13 00:20:51;;;;;;;6.87;4.07;;;;;;;2.03;81.28;94305.91;5001853;28;20801;-74
2022/12/13 00:23:17;;;;;;;6.93;3.80;;;;;;;1.77;81.22;94296.66;4992550;28;20416;-75
2022/12/13 00:25:43;;;;;;;5.63;3.37;;;;;;;1.86;82.25;94305.19;4993502;28;20177;-75
2022/12/13 00:28:08;;;;;;;8.57;4.37;;;;;;;1.88;81.98;94308.44;4993372;28;20200;-75
2022/12/13 00:30:35;;;;;;;7.37;4.30;;;;;;;1.91;82.40;94308.06;4984566;28;20204;-75
2022/12/13 00:33:00;;;;;;;7.45;4.30;;;;;;;1.80;82.44;94272.16;4997564;28;20837;-74
2022/12/13 00:35:25;;;;;;;10.82;5.00;;;;;;;2.06;81.85;94303.78;5008330;28;20466;-75
2022/12/13 00:37:51;;;;;;;7.22;4.72;;;;;;;1.97;81.44;94299.63;5009366;28;20521;-74
2022/12/13 00:40:17;;;;;;;7.97;4.13;;;;;;;1.91;80.47;94313.25;5012758;28;20562;-74
2022/12/13 00:42:42;;;;;;;7.90;4.47;;;;;;;1.75;81.21;94308.97;5008139;28;20184;-74
2022/12/13 00:45:08;;;;;;;8.80;4.90;;;;;;;1.78;81.55;94300.88;4991822;28;20424;-74
2022/12/13 00:47:34;;;;;;;7.32;4.40;;;;;;;1.72;81.91;94287.78;4991846;28;20823;-76
2022/12/13 00:50:00;;;;;;;7.93;4.60;;;;;;;1.86;81.78;94300.81;4991612;28;20454;-76
2022/12/13 00:52:25;;;;;;;8.53;4.57;;;;;;;1.76;82.05;94286.44;4993239;28;20268;-75
2022/12/13 00:54:50;;;;;;;11.17;4.60;;;;;;;1.79;82.04;94279.13;4991743;28;20464;-75
2022/12/13 00:57:16;;;;;;;7.93;4.63;;;;;;;2.00;81.17;94301.03;4993074;28;20531;-75
2022/12/13 00:59:41;;;;;;;8.67;4.17;;;;;;;1.99;81.23;94307.22;4992734;28;20539;-75
2022/12/13 01:02:07;;;;;;;9.40;4.67;;;;;;;1.94;81.38;94306.94;4991690;28;20424;-75
2022/12/13 01:04:32;;;;;;;8.03;4.07;;;;;;;1.91;81.98;94302.88;4991874;28;20177;-75
2022/12/13 01:06:57;;;;;;;9.40;4.87;;;;;;;1.85;82.42;94304.38;5000586;28;20195;-75
2022/12/13 01:09:26;;;;;;;10.40;5.63;;;;;;;1.90;82.48;94312.44;5010742;28;20450;-75
2022/12/13 01:11:56;;;;;;;8.07;5.20;;;;;;;1.85;82.51;94306.97;5010043;28;20430;-75
2022/12/13 01:14:21;;;;;;;6.80;4.53;;;;;;;1.81;82.16;94295.34;5011757;28;20180;-75
2022/12/13 01:16:47;;;;;;;8.77;5.10;;;;;;;1.94;81.88;94304.31;5009430;28;20496;-75
2022/12/13 01:19:12;;;;;;;6.67;4.10;;;;;;;1.93;81.53;94305.31;5012025;28;20267;-75
2022/12/13 01:21:38;;;;;;;7.60;4.90;;;;;;;1.86;81.02;94300.81;4995720;28;20420;-75
2022/12/13 01:24:05;;;;;;;8.98;4.82;;;;;;;1.92;81.58;94304.50;5008286;28;20419;-74
2022/12/13 01:26:31;;;;;;;8.43;4.20;;;;;;;1.80;81.73;94306.69;5011927;28;20185;-75
2022/12/13 01:28:57;;;;;;;9.18;5.53;;;;;;;1.61;80.95;94296.75;4998081;28;20925;-75
2022/12/13 01:31:22;;;;;;;10.93;5.88;;;;;;;1.62;81.69;94300.94;4990438;28;20432;-75
2022/12/13 01:33:48;;;;;;;15.70;6.50;;;;;;;1.63;81.67;94299.97;4990653;28;20516;-75
2022/12/13 01:36:17;;;;;;;13.27;6.00;;;;;;;1.60;81.81;94289.94;4991332;28;20555;-76
2022/12/13 01:38:42;;;;;;;12.73;5.45;;;;;;;1.61;81.80;94309.72;4989393;28;20803;-76
2022/12/13 01:41:14;;;;;;;12.63;5.60;;;;;;;1.68;81.59;94305.44;5006568;28;20589;-76
2022/12/13 01:43:39;;;;;;;11.67;5.87;;;;;;;1.67;81.91;94308.22;5011459;28;20246;-76
2022/12/13 01:46:05;;;;;;;9.30;5.80;;;;;;;1.52;81.74;94287.38;5011469;28;20180;-75
2022/12/13 01:48:38;;;;;;;12.57;4.73;;;;;;;1.52;81.95;94295.16;5011356;28;20168;-76
2022/12/13 01:51:06;;;;;;;8.30;5.70;;;;;;;1.55;82.00;94312.19;5010107;28;20821;-76
2022/12/13 01:53:34;;;;;;;9.03;4.70;;;;;;;1.53;82.18;94314.94;5011418;28;20184;-76
2022/12/13 01:56:05;;;;;;;9.30;5.70;;;;;;;1.45;81.80;94312.38;5010539;28;20444;-75
2022/12/13 01:58:31;;;;;;;8.65;5.45;;;;;;;1.31;82.66;94306.09;5009866;28;20406;-76
2022/12/13 02:00:59;;;;;;;6.90;4.70;;;;;;;1.29;82.51;94302.06;5011038;28;20184;-76
2022/12/13 02:03:24;;;;;;;9.10;4.67;;;;;;;1.37;82.72;94309.81;5006503;28;20173;-76
2022/12/13 02:05:59;;;;;;;10.52;5.93;;;;;;;1.16;82.95;94286.25;4990537;28;20415;-76
2022/12/13 02:08:25;;;;;;;8.53;4.37;;;;;;;1.31;83.07;94302.69;4991356;28;20231;-76
2022/12/13 02:10:51;;;;;;;9.20;4.87;;;;;;;1.20;83.89;94293.53;4991498;28;20287;-76
2022/12/13 02:13:16;;;;;;;10.67;5.33;;;;;;;1.24;83.84;94309.53;4996749;28;20180;-76
2022/12/13 02:16:07;;;;;;;11.15;6.03;;;;;;;1.20;84.67;94310.84;5009785;28;20422;-76
2022/12/13 02:18:33;;;;;;;12.82;6.55;;;;;;;1.22;84.63;94290.75;4984875;28;20419;-76
2022/12/13 02:21:33;;;;;;;9.57;5.00;;;;;;;1.26;84.11;94299.81;4990311;28;20231;-73
2022/12/13 02:24:01;;;;;;;9.85;5.45;;;;;;;1.24;83.77;94305.16;4989048;28;20511;-75
2022/12/13 02:26:46;;;;;;;7.57;4.82;;;;;;;1.17;83.17;94316.38;4990386;28;20416;-76
2022/12/13 02:29:28;;;;;;;9.70;5.90;;;;;;;1.29;82.54;94315.03;5003556;28;20419;-76
2022/12/13 02:32:02;;;;;;;10.68;6.32;;;;;;;1.25;82.92;94306.78;5009434;28;21014;-76
2022/12/13 02:34:38;;;;;;;9.13;5.43;;;;;;;1.10;83.47;94306.69;5010901;28;20610;-76
2022/12/13 02:37:25;;;;;;;10.23;6.15;;;;;;;1.14;84.27;94320.09;5009477;28;20445;-76
2022/12/13 02:39:59;;;;;;;10.47;6.07;;;;;;;0.99;84.30;94296.66;5010875;28;20173;-76
2022/12/13 02:42:30;;;;;;;12.63;6.63;;;;;;;1.12;83.85;94329.84;5003922;28;20227;-75
2022/12/13 02:45:12;;;;;;;13.03;5.33;;;;;;;1.14;83.33;94327.88;5008330;28;20188;-75
2022/12/13 02:47:42;;;;;;;9.40;5.63;;;;;;;1.19;83.54;94322.19;5009287;28;20410;-76
2022/12/13 02:50:09;;;;;;;9.47;5.20;;;;;;;1.16;83.72;94318.16;5010954;28;21559;-76
2022/12/13 02:52:38;;;;;;;11.37;5.93;;;;;;;1.21;83.37;94330.63;5010808;28;20659;-77
2022/12/13 02:55:10;;;;;;;14.17;6.10;;;;;;;1.09;83.10;94315.41;5010627;28;20189;-76
2022/12/13 02:57:38;;;;;;;13.88;6.63;;;;;;;1.06;82.86;94328.69;5010251;28;20441;-76
2022/12/13 03:00:06;;;;;;;9.77;5.90;;;;;;;0.94;83.43;94334.41;5010655;28;20660;-76
2022/12/13 03:02:44;;;;;;;9.77;6.05;;;;;;;0.86;83.04;94322.28;5010073;28;20438;-76
2022/12/13 03:08:23;;;;;;;8.02;5.05;;;;;;;0.66;83.00;94332.19;4991248;28;20447;-76
2022/12/13 03:11:17;;;;;;;9.23;5.43;;;;;;;0.75;83.28;94330.38;4998898;28;20477;-77
2022/12/13 03:14:06;;;;;;;7.38;5.25;;;;;;;0.59;83.12;94328.63;5009077;28;20442;-76
2022/12/13 03:16:42;;;;;;;8.47;5.10;;;;;;;0.49;83.16;94311.63;5002168;28;20231;-76
2022/12/13 03:19:10;;;;;;;8.82;5.57;;;;;;;0.62;82.89;94310.16;5009734;28;20426;-75
2022/12/13 03:21:47;;;;;;;10.63;5.87;;;;;;;0.62;83.57;94319.72;5010720;28;20176;-76
2022/12/13 03:24:15;;;;;;;10.23;5.63;;;;;;;0.53;82.93;94334.44;5010856;28;20180;-76
2022/12/13 03:26:40;;;;;;;9.63;5.27;;;;;;;0.46;83.42;94314.53;4993904;28;20536;-76
2022/12/13 03:29:06;;;;;;;8.47;5.20;;;;;;;0.44;83.69;94326.84;5012719;28;20243;-76
2022/12/13 03:31:32;;;;;;;10.73;5.07;;;;;;;0.41;83.46;94328.00;5014221;28;20227;-76
2022/12/13 03:33:57;;;;;;;10.47;5.80;;;;;;;0.30;83.93;94323.13;5013492;28;20529;-76
2022/12/13 03:36:23;;;;;;;8.27;5.17;;;;;;;0.37;83.46;94337.84;5014258;28;20207;-76
2022/12/13 03:38:51;;;;;;;11.10;7.00;;;;;;;0.40;84.03;94341.91;4993951;28;20926;-76
2022/12/13 03:41:20;;;;;;;8.93;6.03;;;;;;;0.30;83.77;94312.78;4994597;28;20318;-76
2022/12/13 03:43:45;;;;;;;12.17;5.90;;;;;;;0.33;83.35;94330.56;4994401;28;20665;-76
2022/12/13 03:46:11;;;;;;;11.77;5.67;;;;;;;0.35;82.65;94332.00;4992957;28;20173;-76
2022/12/13 03:48:36;;;;;;;10.33;6.03;;;;;;;0.28;82.62;94343.19;4993582;28;20185;-75
2022/12/13 03:51:02;;;;;;;8.23;4.77;;;;;;;0.25;83.44;94341.75;5007794;28;20196;-75
2022/12/13 03:53:27;;;;;;;9.60;6.10;;;;;;;0.17;83.79;94346.91;5013121;28;20897;-75
2022/12/13 03:55:53;;;;;;;9.47;5.30;;;;;;;0.01;83.94;94346.84;5013330;28;20702;-75
2022/12/13 03:58:19;;;;;;;10.80;6.57;;;;;;;-0.13;84.35;94332.78;5010458;28;20212;-75
2022/12/13 04:00:44;;;;;;;17.23;7.83;;;;;;;-0.02;84.77;94355.78;4993973;28;20260;-75
2022/12/13 04:03:10;;;;;;;14.80;7.07;;;;;;;0.03;84.46;94357.88;4994165;28;20257;-76
2022/12/13 04:05:35;;;;;;;12.20;6.20;;;;;;;-0.12;84.22;94346.53;4992690;28;20216;-75
2022/12/13 04:08:01;;;;;;;11.07;5.57;;;;;;;-0.02;84.35;94363.53;4996850;28;20232;-75
2022/12/13 04:10:27;;;;;;;10.60;5.47;;;;;;;-0.19;83.80;94348.94;5013210;28;20221;-76
2022/12/13 04:15:37;;;;;;;11.32;6.68;;;;;;;-0.24;83.55;94351.19;5009247;28;20487;-76
2022/12/13 04:18:03;;;;;;;12.33;6.90;;;;;;;-0.08;82.90;94376.25;5003105;28;20890;-75
2022/12/13 04:20:28;;;;;;;15.20;8.00;;;;;;;-0.17;83.49;94380.59;4990487;28;20229;-75
2022/12/13 04:22:54;;;;;;;21.60;10.67;;;;;;;-0.21;84.48;94381.91;5001918;28;20439;-74
2022/12/13 04:25:19;;;;;;;23.50;11.50;;;;;;;-0.23;84.64;94383.00;5013472;28;20495;-75
2022/12/13 04:27:45;;;;;;;16.73;9.77;;;;;;;-0.30;83.97;94385.44;5006155;28;20204;-75
2022/12/13 04:30:11;;;;;;;11.70;7.47;;;;;;;-0.28;83.95;94395.63;4997762;28;20193;-75
2022/12/13 04:32:37;;;;;;;13.40;7.78;;;;;;;-0.41;83.63;94406.38;4995010;28;20448;-75
2022/12/13 04:35:03;;;;;;;14.00;6.50;;;;;;;-0.50;85.08;94413.28;4996575;28;20184;-76
2022/12/13 04:37:29;;;;;;;11.48;6.38;;;;;;;-0.47;84.94;94415.56;4988198;28;20462;-75
2022/12/13 04:39:54;;;;;;;10.10;6.38;;;;;;;-0.55;84.24;94423.28;4979106;28;20543;-75
2022/12/13 04:42:19;;;;;;;11.90;6.07;;;;;;;-0.52;84.93;94420.38;4987472;28;20651;-76
2022/12/13 04:44:45;;;;;;;21.67;9.38;;;;;;;-0.53;84.54;94420.56;4984770;28;20428;-75
2022/12/13 04:47:10;;;;;;;25.10;11.77;;;;;;;-0.51;84.31;94427.16;4990994;28;21016;-76
2022/12/13 04:49:36;;;;;;;24.03;9.80;;;;;;;-0.58;84.85;94417.59;5002096;28;20185;-76
2022/12/13 04:52:02;;;;;;;19.80;9.27;;;;;;;-0.39;83.96;94427.72;5011931;28;20870;-75
2022/12/13 04:54:29;;;;;;;22.45;10.75;;;;;;;-0.37;83.97;94420.63;5006449;28;20439;-75
2022/12/13 04:56:55;;;;;;;19.80;8.20;;;;;;;-0.40;83.91;94432.06;4992753;28;20181;-75
2022/12/13 04:59:20;;;;;;;21.90;10.43;;;;;;;-0.49;83.80;94403.75;4992323;28;20416;-75
2022/12/13 05:01:45;;;;;;;17.97;8.30;;;;;;;-0.27;83.45;94425.69;4992815;28;20169;-75
2022/12/13 05:04:11;;;;;;;11.00;5.87;;;;;;;-0.33;83.16;94426.28;5001211;28;20188;-75
2022/12/13 05:06:37;;;;;;;10.45;6.13;;;;;;;-0.41;83.33;94422.69;5009855;28;20429;-75
2022/12/13 05:09:03;;;;;;;13.77;6.43;;;;;;;-0.20;83.88;94437.00;4998373;28;20709;-75
2022/12/13 05:11:28;;;;;;;14.10;7.20;;;;;;;-0.15;83.54;94435.56;4992387;28;20293;-75
2022/12/13 05:13:54;;;;;;;13.27;6.57;;;;;;;-0.19;84.27;94420.53;4992530;28;20185;-75
2022/12/13 05:16:19;;;;;;;14.97;7.47;;;;;;;-0.04;83.57;94435.28;4991357;28;20447;-75
2022/12/13 05:18:44;;;;;;;14.87;7.90;;;;;;;0.04;84.14;94439.69;4991550;28;20411;-75
2022/12/13 05:21:11;;;;;;;18.20;8.40;;;;;;;-0.18;82.88;94397.13;4989619;28;20447;-75
2022/12/13 05:23:39;;;;;;;22.67;11.37;;;;;;;0.22;81.72;94442.97;4991203;28;20646;-74
2022/12/13 05:26:04;;;;;;;19.17;9.00;;;;;;;0.07;81.18;94404.94;4992021;28;20200;-74
2022/12/13 05:28:30;;;;;;;14.27;8.77;;;;;;;0.29;80.66;94450.91;4992617;28;20221;-74
2022/12/13 05:30:58;;;;;;;15.57;8.57;;;;;;;0.32;80.51;94458.34;4991308;28;20511;-75
2022/12/13 05:33:25;;;;;;;16.70;9.00;;;;;;;0.28;80.68;94462.22;4989736;28;20415;-74
2022/12/13 05:35:51;;;;;;;17.42;9.52;;;;;;;-0.04;80.54;94432.72;4991019;28;20790;-74
2022/12/13 05:38:16;;;;;;;12.67;7.13;;;;;;;-0.04;80.64;94455.16;4991167;28;20801;-74
2022/12/13 05:40:43;;;;;;;12.02;7.25;;;;;;;-0.17;81.88;94436.69;4990036;28;20448;-74
2022/12/13 05:43:11;;;;;;;12.27;6.77;;;;;;;0.06;81.06;94479.16;5006679;28;20180;-74
2022/12/13 05:45:37;;;;;;;15.48;9.13;;;;;;;0.08;81.50;94477.22;4991801;28;20420;-75
2022/12/13 05:48:02;;;;;;;17.80;9.32;;;;;;;0.10;81.64;94458.94;4990519;28;20511;-75
2022/12/13 05:50:28;;;;;;;17.98;9.40;;;;;;;0.17;81.15;94465.94;4990286;28;20443;-75
2022/12/13 05:52:53;;;;;;;19.03;9.13;;;;;;;0.22;80.68;94473.22;4990024;28;20632;-75
2022/12/13 05:55:19;;;;;;;14.30;8.00;;;;;;;0.16;79.80;94466.09;4991558;28;20423;-75
2022/12/13 05:57:44;;;;;;;20.70;9.40;;;;;;;0.24;80.76;94481.63;4991823;28;20227;-75
2022/12/13 06:00:10;;;;;;;27.77;11.90;;;;;;;0.27;80.56;94492.47;4990462;28;20204;-75
2022/12/13 06:02:40;;;;;;;28.20;11.73;;;;;;;0.23;79.66;94490.34;4991748;28;20201;-75
2022/12/13 06:05:06;;;;;;;19.13;9.65;;;;;;;0.23;78.72;94503.28;4990478;28;20435;-75
2022/12/13 06:07:32;;;;;;;21.15;10.63;;;;;;;0.24;79.22;94505.72;4999394;28;20440;-75
2022/12/13 06:09:57;;;;;;;12.23;6.88;;;;;;;0.08;78.43;94491.94;4991264;28;20526;-75
2022/12/13 06:12:23;;;;;;;13.27;6.87;;;;;;;-0.10;79.14;94473.91;4991852;28;20177;-75
2022/12/13 06:14:49;;;;;;;10.87;6.60;;;;;;;0.16;79.56;94492.78;4991606;28;20223;-75
2022/12/13 06:17:14;;;;;;;15.17;8.03;;;;;;;0.02;78.53;94488.16;4991961;28;20563;-75
2022/12/13 06:19:39;;;;;;;15.60;7.00;;;;;;;-0.11;79.33;94490.41;4992191;28;20223;-75
2022/12/13 06:22:05;;;;;;;14.47;7.43;;;;;;;-0.24;79.37;94475.28;5001191;28;20184;-74
2022/12/13 06:24:30;;;;;;;12.63;7.17;;;;;;;-0.01;79.91;94494.50;5000320;28;20280;-74
2022/12/13 06:26:57;;;;;;;16.43;8.63;;;;;;;0.07;80.68;94496.28;5004542;28;20187;-75
2022/12/13 06:29:23;;;;;;;17.43;8.57;;;;;;;-0.07;80.16;94473.59;5004549;28;20173;-75
2022/12/13 06:31:51;;;;;;;18.53;10.00;;;;;;;-0.03;79.92;94470.53;4999831;28;20214;-74
2022/12/13 06:34:17;;;;;;;18.93;10.40;;;;;;;0.18;79.59;94503.75;5009649;28;20176;-75
2022/12/13 06:36:42;;;;;;;16.03;9.60;;;;;;;0.19;80.26;94502.78;4995483;28;20184;-75
2022/12/13 06:39:08;;;;;;;19.80;9.93;;;;;;;0.22;79.48;94505.06;5006959;28;20184;-75
2022/12/13 06:41:33;;;;;;;17.90;9.87;;;;;;;0.23;80.29;94486.00;5010790;28;20226;-75
2022/12/13 06:43:59;;;;;;;25.43;12.30;;;;;;;0.43;79.50;94511.63;5010846;28;20223;-75
2022/12/13 06:46:25;;;;;;;20.63;11.30;;;;;;;0.26;78.99;94490.84;5010588;28;20199;-75
2022/12/13 06:48:51;;;;;;;31.63;14.80;;;;;;;0.32;79.74;94486.84;5010735;28;20191;-75
2022/12/13 06:51:17;;;;;;;29.33;13.67;;;;;;;0.51;78.77;94502.09;5010068;28;20214;-75
2022/12/13 06:53:43;;;;;;;30.23;13.47;;;;;;;0.59;78.86;94511.66;5010067;28;20506;-75
2022/12/13 06:56:13;;;;;;;37.80;15.63;;;;;;;0.60;78.57;94508.09;4996012;28;20335;-75
2022/12/13 06:58:39;;;;;;;31.43;12.93;;;;;;;0.60;78.85;94497.75;4990946;28;20236;-75
2022/12/13 07:01:12;;;;;;;25.67;12.50;;;;;;;0.77;78.78;94508.94;4990645;28;20201;-75
2022/12/13 07:03:37;;;;;;;25.77;12.30;;;;;;;0.90;77.71;94504.91;4992944;28;20257;-75
2022/12/13 07:06:15;;;;;;;29.83;12.87;;;;;;;1.05;77.35;94502.47;4994648;28;20264;-75
2022/12/13 07:08:42;;;;;;;21.97;11.00;;;;;;;1.16;76.34;94514.28;4994902;28;20232;-75
2022/12/13 07:11:14;;;;;;;24.20;10.00;;;;;;;1.31;76.14;94500.53;4994839;28;20205;-75
2022/12/13 07:13:40;;;;;;;25.97;11.27;;;;;;;1.72;75.44;94510.84;4993514;28;20176;-75
2022/12/13 07:16:05;;;;;;;28.90;13.10;;;;;;;2.11;74.48;94522.09;4994717;28;20264;-75
2022/12/13 07:18:31;;;;;;;24.37;11.90;;;;;;;2.43;72.81;94533.31;4994517;28;20610;-75
2022/12/13 07:20:56;;;;;;;30.03;11.87;;;;;;;2.70;71.51;94522.47;4994484;28;20181;-75
2022/12/13 07:23:22;;;;;;;26.03;12.30;;;;;;;2.93;69.93;94532.91;4994829;28;20260;-75
2022/12/13 07:25:54;;;;;;;23.47;10.67;;;;;;;2.93;68.31;94522.53;5004718;28;20180;-75
2022/12/13 07:28:20;;;;;;;21.17;10.87;;;;;;;3.22;68.33;94533.03;5014063;28;20191;-75
2022/12/13 07:30:47;;;;;;;29.83;13.07;;;;;;;3.34;68.01;94521.25;4998158;28;20204;-75
2022/12/13 07:33:13;;;;;;;30.90;13.20;;;;;;;3.57;66.94;94541.22;5008475;28;20200;-75
2022/12/13 07:35:38;;;;;;;30.07;13.60;;;;;;;3.76;67.04;94546.72;4994245;28;20625;-76
2022/12/13 07:38:05;;;;;;;20.57;11.10;;;;;;;3.89;66.35;94550.53;4998067;28;20188;-75
2022/12/13 07:40:36;;;;;;;25.77;11.50;;;;;;;4.29;65.51;94528.47;4994484;28;21028;-76
2022/12/13 07:43:02;;;;;;;21.57;9.30;;;;;;;4.58;63.54;94541.47;4994030;28;20212;-76
2022/12/13 07:45:28;;;;;;;22.27;10.33;;;;;;;4.57;61.97;94520.81;4993551;28;20268;-76
2022/12/13 07:47:53;;;;;;;21.27;10.30;;;;;;;4.60;62.29;94530.84;4982541;28;20657;-75
2022/12/13 07:50:20;;;;;;;21.10;10.13;;;;;;;4.76;61.88;94548.88;5008564;28;20215;-75
2022/12/13 07:52:47;;;;;;;22.80;11.03;;;;;;;4.94;62.32;94557.94;5013923;28;20287;-75
2022/12/13 07:55:12;;;;;;;18.80;9.80;;;;;;;4.96;60.60;94562.16;5013711;28;20914;-75
2022/12/13 07:57:38;;;;;;;18.13;9.57;;;;;;;5.12;60.80;94531.44;5006624;28;20219;-75
2022/12/13 08:00:04;;;;;;;15.13;8.17;;;;;;;5.82;58.43;94537.69;4993787;28;20190;-74
2022/12/13 08:02:29;;;;;;;15.57;8.27;;;;;;;6.70;56.59;94564.00;4993786;28;20307;-75
2022/12/13 08:04:54;;;;;;;20.67;10.17;;;;;;;7.08;55.12;94538.19;4993656;28;20169;-75
2022/12/13 08:07:20;;;;;;;18.43;10.70;;;;;;;7.16;55.30;94561.56;4993504;28;20177;-75
2022/12/13 08:09:45;;;;;;;18.73;10.13;;;;;;;6.94;54.52;94570.53;4993636;28;20721;-74
2022/12/13 08:12:11;;;;;;;19.67;11.27;;;;;;;6.59;55.05;94574.19;4993539;28;20193;-74
2022/12/13 08:14:36;;;;;;;17.27;9.67;;;;;;;6.14;55.93;94573.72;4985047;28;20642;-75
2022/12/13 08:17:02;;;;;;;19.30;10.03;;;;;;;5.84;57.19;94575.69;5005061;28;20195;-74
2022/12/13 08:19:27;;;;;;;20.73;10.27;;;;;;;5.72;58.61;94571.94;5008053;28;20173;-75
2022/12/13 08:21:54;;;;;;;24.17;10.90;;;;;;;5.65;59.05;94574.50;4992774;28;20607;-74
2022/12/13 08:24:20;;;;;;;19.93;10.37;;;;;;;5.76;58.71;94567.16;4998852;28;20204;-74
2022/12/13 08:26:45;;;;;;;26.53;12.27;;;;;;;5.94;58.28;94588.44;4992992;28;20173;-75
2022/12/13 08:29:14;;;;;;;24.77;13.20;;;;;;;5.94;58.59;94575.38;4992853;28;20658;-75
2022/12/13 08:31:39;;;;;;;27.93;11.90;;;;;;;6.03;58.54;94574.25;4992733;28;20189;-74
2022/12/13 08:34:05;;;;;;;15.60;9.20;;;;;;;6.07;58.79;94571.06;4992458;28;20555;-74
2022/12/13 08:36:30;;;;;;;21.60;11.23;;;;;;;6.11;57.83;94555.81;4993173;28;20695;-74
2022/12/13 08:38:57;;;;;;;23.03;11.57;;;;;;;6.22;58.98;94546.66;4993057;28;20184;-74
2022/12/13 08:41:23;;;;;;;23.83;11.57;;;;;;;6.52;58.78;94573.34;4992792;28;20175;-75
2022/12/13 08:43:48;;;;;;;22.70;10.37;;;;;;;6.67;58.47;94564.38;5003105;28;20176;-74
2022/12/13 08:46:14;;;;;;;21.33;11.63;;;;;;;6.91;58.05;94565.72;5012333;28;20238;-74
2022/12/13 08:48:40;;;;;;;26.53;14.23;;;;;;;7.11;56.00;94556.09;5012209;28;20176;-74
2022/12/13 08:51:08;;;;;;;24.43;12.93;;;;;;;7.06;55.76;94549.84;5003797;28;20749;-74
2022/12/13 08:53:34;;;;;;;24.33;14.40;;;;;;;7.13;56.95;94546.25;4992530;28;20644;-74
2022/12/13 08:56:01;;;;;;;16.47;12.07;;;;;;;7.20;55.55;94541.84;4992568;28;20527;-74
2022/12/13 08:58:26;;;;;;;12.27;7.93;;;;;;;7.31;55.71;94532.59;4992609;28;20260;-74
2022/12/13 09:00:52;;;;;;;11.50;7.40;;;;;;;7.14;54.31;94500.75;4992248;28;20268;-74
2022/12/13 09:03:17;;;;;;;11.00;6.80;;;;;;;7.35;54.45;94533.03;4991189;28;20177;-74
2022/12/13 09:05:43;;;;;;;13.60;8.10;;;;;;;7.30;55.54;94530.19;4992465;28;20619;-74
2022/12/13 09:08:08;;;;;;;13.17;7.47;;;;;;;7.33;55.34;94521.94;4992486;28;20217;-74
2022/12/13 09:10:34;;;;;;;13.43;7.57;;;;;;;7.43;56.14;94520.56;4992032;28;20215;-74
2022/12/13 09:13:00;;;;;;;9.90;5.73;;;;;;;7.49;53.63;94526.81;4992448;28;20276;-74
2022/12/13 09:15:29;;;;;;;17.57;7.60;;;;;;;7.51;54.20;94522.19;4988653;28;20187;-74
2022/12/13 09:17:55;;;;;;;13.33;6.97;;;;;;;7.58;53.53;94510.69;4987918;28;20181;-75
2022/12/13 09:20:20;;;;;;;12.87;7.00;;;;;;;7.55;53.55;94510.28;4991803;28;20173;-74
2022/12/13 09:22:46;;;;;;;23.07;12.83;;;;;;;7.47;53.60;94503.44;4990949;28;20655;-76
2022/12/13 09:25:12;;;;;;;17.37;11.00;;;;;;;7.44;52.13;94503.00;4991940;28;20176;-75
2022/12/13 09:27:37;;;;;;;19.97;10.37;;;;;;;7.29;53.15;94502.38;5010850;28;20242;-76
2022/12/13 09:30:03;;;;;;;19.33;9.70;;;;;;;7.05;53.97;94470.53;5011078;28;20623;-76
2022/12/13 09:32:30;;;;;;;19.60;9.67;;;;;;;7.21;54.16;94487.69;5010975;28;20172;-76
2022/12/13 09:34:55;;;;;;;24.80;9.90;;;;;;;7.11;54.30;94480.22;5011200;28;20211;-76
2022/12/13 09:37:21;;;;;;;16.20;8.20;;;;;;;7.02;54.42;94481.41;5010724;28;20203;-77
2022/12/13 09:39:46;;;;;;;16.40;7.83;;;;;;;7.16;52.69;94493.53;5011052;28;20230;-75
2022/12/13 09:42:20;;;;;;;13.80;7.47;;;;;;;7.11;52.99;94495.91;5011375;28;20294;-74
2022/12/13 09:44:52;;;;;;;6.97;4.57;;;;;;;7.10;51.18;94493.50;5011398;28;20289;-75
2022/12/13 09:47:30;;;;;;;6.70;4.60;;;;;;;7.01;52.97;94494.69;5011108;28;20246;-75
2022/12/13 09:49:57;;;;;;;9.50;4.73;;;;;;;6.96;54.40;94482.19;5010007;28;20195;-75
2022/12/13 09:52:24;;;;;;;8.27;5.20;;;;;;;7.10;54.76;94483.03;5001154;28;20235;-75
2022/12/13 09:54:54;;;;;;;11.07;6.27;;;;;;;7.13;55.25;94488.69;4991486;28;20263;-75
2022/12/13 09:57:26;;;;;;;10.20;5.73;;;;;;;7.09;55.50;94486.66;4991368;28;20171;-75
2022/12/13 09:59:51;;;;;;;15.00;7.33;;;;;;;6.98;53.78;94498.50;4991258;28;20177;-75
2022/12/13 10:02:24;;;;;;;12.73;7.17;;;;;;;6.83;54.57;94490.03;4991343;28;20208;-74
2022/12/13 10:04:51;;;;;;;11.67;6.37;;;;;;;6.53;54.44;94476.44;4991371;28;20204;-74
2022/12/13 10:07:22;;;;;;;13.60;7.23;;;;;;;6.40;54.66;94489.44;4991401;28;20260;-74
2022/12/13 10:09:54;;;;;;;14.50;7.50;;;;;;;6.20;56.77;94468.44;5008792;28;20251;-74
2022/12/13 10:12:19;;;;;;;20.40;13.10;;;;;;;6.24;58.19;94481.91;5003176;28;20209;-74
2022/12/13 10:14:57;;;;;;;18.73;9.57;;;;;;;5.99;56.06;94481.56;4991297;28;20735;-74
2022/12/13 10:17:27;;;;;;;21.27;11.70;;;;;;;5.98;56.88;94479.97;4991065;28;20268;-74
2022/12/13 10:19:53;;;;;;;14.67;8.03;;;;;;;5.90;57.09;94472.28;4991122;28;20184;-74
2022/12/13 10:22:21;;;;;;;11.20;6.57;;;;;;;5.66;55.25;94479.53;4996678;28;20172;-74
2022/12/13 10:24:47;;;;;;;8.77;5.53;;;;;;;5.57;56.77;94470.22;5010991;28;20208;-75
2022/12/13 10:27:15;;;;;;;11.73;5.47;;;;;;;5.46;58.00;94456.88;5010862;28;20204;-75
2022/12/13 10:30:21;;;;;;;10.10;4.87;;;;;;;5.48;56.71;94444.44;5010758;28;20207;-75
2022/12/13 10:32:52;;;;;;;9.57;5.43;;;;;;;5.38;55.73;94436.94;5010815;28;20560;-76
2022/12/13 10:35:33;;;;;;;11.63;6.87;;;;;;;5.35;55.54;94447.78;5011238;28;20169;-74
2022/12/13 10:38:01;;;;;;;13.37;6.70;;;;;;;5.24;57.06;94441.25;5012149;28;20183;-75
2022/12/13 10:40:34;;;;;;;17.17;8.17;;;;;;;5.27;57.31;94432.25;5014884;28;20176;-75
2022/12/13 10:43:15;;;;;;;13.63;6.10;;;;;;;5.20;56.47;94432.19;5014896;28;20242;-76
2022/12/13 10:45:43;;;;;;;14.27;9.10;;;;;;;5.15;57.72;94429.34;5014934;28;20257;-76
2022/12/13 10:48:20;;;;;;;9.67;6.63;;;;;;;5.04;58.47;94432.44;5014361;28;20187;-76
2022/12/13 10:50:59;;;;;;;8.30;5.07;;;;;;;4.84;56.80;94421.81;5013963;28;20772;-76
2022/12/13 10:53:38;;;;;;;13.57;7.30;;;;;;;4.76;57.66;94415.91;5014108;28;20175;-76
2022/12/13 10:56:04;;;;;;;9.50;5.63;;;;;;;4.60;58.93;94403.13;5013939;28;20180;-76
2022/12/13 10:59:07;;;;;;;8.47;5.37;;;;;;;4.20;58.09;94347.22;5013000;28;20176;-76
2022/12/13 11:01:32;;;;;;;8.43;5.43;;;;;;;4.52;58.53;94417.09;5011899;28;20176;-76
2022/12/13 11:04:01;;;;;;;7.07;4.37;;;;;;;4.53;60.28;94411.69;5012260;28;20725;-76
2022/12/13 11:06:38;;;;;;;6.37;3.93;;;;;;;4.58;59.39;94403.34;5012496;28;20176;-76
2022/12/13 11:09:13;;;;;;;6.93;4.20;;;;;;;4.66;57.77;94413.66;5012770;28;20253;-76
2022/12/13 11:11:38;;;;;;;10.53;5.83;;;;;;;4.68;57.89;94401.22;5011767;28;20286;-76
2022/12/13 11:14:04;;;;;;;12.83;6.13;;;;;;;4.64;57.87;94394.78;5013357;28;20607;-76
2022/12/13 11:16:32;;;;;;;15.23;7.57;;;;;;;4.67;59.50;94396.22;5013924;28;20781;-76
2022/12/13 11:19:22;;;;;;;16.03;8.13;;;;;;;4.61;58.96;94400.34;5013597;28;20173;-76
2022/12/13 11:21:51;;;;;;;20.00;7.40;;;;;;;4.61;59.33;94392.53;5013456;28;20176;-76
2022/12/13 11:24:39;;;;;;;13.10;6.33;;;;;;;4.37;59.92;94364.22;5013420;28;20641;-76
2022/12/13 11:27:24;;;;;;;9.47;5.60;;;;;;;4.42;59.63;94380.91;5013378;28;20215;-76
2022/12/13 11:30:17;;;;;;;10.07;5.87;;;;;;;4.50;61.33;94390.41;5013428;28;20778;-76
2022/12/13 11:33:11;;;;;;;7.80;4.63;;;;;;;4.59;61.17;94397.13;5013244;28;20211;-76
2022/12/13 11:36:12;;;;;;;6.83;4.27;;;;;;;4.66;60.14;94400.63;5013320;28;20172;-76
2022/12/13 11:38:47;;;;;;;5.53;3.53;;;;;;;4.57;59.19;94401.72;5013319;28;20167;-77
2022/12/13 11:41:23;;;;;;;6.50;4.23;;;;;;;4.53;60.06;94396.06;5013108;28;20179;-77
2022/12/13 11:43:54;;;;;;;9.40;5.27;;;;;;;4.48;58.96;94372.38;4998625;28;20176;-76